createdAt,value
2019-03-15T09:52:26.147Z,42.57
2019-03-15T09:52:28.286Z,42.87
2019-03-15T09:52:30.432Z,42.87
2019-03-15T09:52:32.567Z,42.77
2019-03-15T09:52:34.697Z,42.77
2019-03-15T09:52:36.840Z,42.67
2019-03-15T09:52:38.976Z,42.67
2019-03-15T09:52:41.111Z,42.67
2019-03-15T09:52:43.245Z,42.67
2019-03-15T09:52:45.382Z,42.67
2019-03-15T09:52:47.535Z,42.67
2019-03-15T09:52:49.672Z,42.57
2019-03-15T09:52:51.812Z,42.57
2019-03-15T09:52:53.944Z,42.47
2019-03-15T09:52:56.074Z,42.47
2019-03-15T09:52:58.213Z,42.47
2019-03-15T09:53:00.376Z,42.37
2019-03-15T09:53:05.814Z,42.37
2019-03-15T09:53:08.333Z,42.47
2019-03-15T09:53:10.472Z,42.37
2019-03-15T09:53:12.639Z,42.37
2019-03-15T09:53:14.772Z,42.27
2019-03-15T09:53:16.907Z,42.27
2019-03-15T09:53:19.039Z,42.27
2019-03-15T09:53:21.169Z,42.37
2019-03-15T09:53:23.302Z,42.37
2019-03-15T09:53:25.441Z,42.57
2019-03-15T09:53:27.586Z,42.67
2019-03-15T09:53:29.724Z,42.87
2019-03-15T09:53:31.853Z,42.87
2019-03-15T09:53:33.996Z,42.87
2019-03-15T09:53:36.137Z,42.87
2019-03-15T09:53:38.359Z,42.87
2019-03-15T09:53:40.511Z,42.87
2019-03-15T09:53:42.666Z,42.87
2019-03-15T09:53:44.820Z,43.07
2019-03-15T09:53:46.953Z,43.17
2019-03-15T09:53:49.089Z,43.27
2019-03-15T09:53:51.226Z,43.27
2019-03-15T09:53:53.363Z,43.37
2019-03-15T09:53:55.496Z,43.37
2019-03-15T09:53:57.638Z,43.37
2019-03-15T09:53:59.789Z,43.37
2019-03-15T09:54:01.920Z,43.37
2019-03-15T09:54:04.061Z,43.47
2019-03-15T09:54:06.195Z,43.47
2019-03-15T09:54:08.328Z,43.57
2019-03-15T09:54:10.463Z,43.57
2019-03-15T09:54:12.595Z,43.57
2019-03-15T09:54:14.732Z,43.67
2019-03-15T09:54:16.862Z,43.67
2019-03-15T09:54:19.006Z,43.77
2019-03-15T09:54:21.145Z,43.87
2019-03-15T09:54:26.076Z,43.87
2019-03-15T09:54:28.518Z,44.17
2019-03-15T09:54:30.654Z,44.27
2019-03-15T09:54:32.788Z,44.27
2019-03-15T09:54:34.925Z,44.27
2019-03-15T09:54:37.065Z,44.27
2019-03-15T09:54:39.205Z,44.17
2019-03-15T09:54:41.342Z,44.07
2019-03-15T09:54:43.478Z,43.97
2019-03-15T09:54:45.610Z,43.97
2019-03-15T09:54:47.753Z,43.97
2019-03-15T09:54:49.890Z,44.07
2019-03-15T09:54:52.027Z,44.07
2019-03-15T09:54:54.165Z,44.67
2019-03-15T09:54:56.306Z,44.96
2019-03-15T09:54:58.445Z,45.06
2019-03-15T09:55:00.586Z,44.96
2019-03-15T09:55:02.720Z,44.87
2019-03-15T09:55:04.863Z,44.67
2019-03-15T09:55:07.002Z,44.57
2019-03-15T09:55:09.135Z,44.37
2019-03-15T09:55:11.269Z,44.27
2019-03-15T09:55:13.418Z,44.27
2019-03-15T09:55:15.555Z,44.17
2019-03-15T09:55:17.746Z,44.07
2019-03-15T09:55:32.355Z,44.07
2019-03-15T09:55:33.273Z,43.97
2019-03-15T09:55:36.116Z,47.16
2019-03-15T09:55:38.244Z,60.76
2019-03-15T09:55:40.372Z,72.44
2019-03-15T09:55:42.499Z,80.27
2019-03-15T09:55:44.628Z,84.50
2019-03-15T09:55:46.765Z,91.03
2019-03-15T09:55:48.897Z,92.92
2019-03-15T09:55:51.034Z,92.18
2019-03-15T09:55:53.313Z,90.30
2019-03-15T09:55:55.481Z,86.43
2019-03-15T09:55:57.623Z,80.57
2019-03-15T09:55:59.751Z,73.96
2019-03-15T09:56:01.881Z,68.00
2019-03-15T09:56:04.023Z,63.04
2019-03-15T09:56:06.164Z,58.60
2019-03-15T09:56:08.303Z,54.53
2019-03-15T09:56:10.448Z,51.15
2019-03-15T09:56:12.589Z,48.27
2019-03-15T09:56:14.729Z,46.19
2019-03-15T09:56:16.869Z,44.70
2019-03-15T09:56:19.010Z,43.60
2019-03-15T09:56:21.139Z,42.91
2019-03-15T09:56:23.277Z,42.33
2019-03-15T09:56:27.741Z,42.03
2019-03-15T09:56:30.127Z,41.83
2019-03-15T09:56:32.262Z,41.74
2019-03-15T09:56:34.421Z,41.53
2019-03-15T09:56:36.593Z,41.44
2019-03-15T09:56:38.731Z,41.24
2019-03-15T09:56:40.874Z,41.24
2019-03-15T09:56:43.014Z,41.34
2019-03-15T09:56:45.143Z,41.46
2019-03-15T09:56:47.330Z,41.46
2019-03-15T09:56:49.470Z,41.46
2019-03-15T09:56:51.604Z,41.46
2019-03-15T09:56:53.735Z,41.55
2019-03-15T09:57:37.664Z,41.58
2019-03-15T09:57:39.794Z,42.47
2019-03-15T09:57:41.925Z,42.47
2019-03-15T09:57:44.064Z,42.27
2019-03-15T09:57:46.202Z,42.57
2019-03-15T09:58:37.695Z,41.69
2019-03-15T09:58:39.832Z,41.79
2019-03-15T09:58:41.970Z,41.79
2019-03-15T09:58:44.098Z,41.79
2019-03-15T09:58:46.228Z,41.69
2019-03-15T09:58:48.366Z,41.60
2019-03-15T09:58:50.509Z,41.60
2019-03-15T09:58:52.639Z,41.60
2019-03-15T09:58:54.780Z,41.60
2019-03-15T09:58:56.925Z,41.60
2019-03-15T09:58:59.060Z,41.60
2019-03-15T09:59:01.191Z,41.50
2019-03-15T09:59:03.400Z,41.50
2019-03-15T09:59:05.542Z,41.69
2019-03-15T09:59:07.680Z,42.39
2019-03-15T09:59:09.814Z,43.19
2019-03-15T09:59:11.951Z,43.68
2019-03-15T09:59:14.080Z,43.19
2019-03-15T09:59:19.280Z,42.69
2019-03-15T09:59:21.671Z,42.09
2019-03-15T09:59:23.803Z,43.98
2019-03-15T09:59:25.933Z,45.18
2019-03-15T09:59:28.062Z,44.88
2019-03-15T09:59:30.197Z,44.18
2019-03-15T09:59:32.332Z,43.49
2019-03-15T09:59:34.470Z,42.99
2019-03-15T09:59:36.609Z,42.59
2019-03-15T09:59:38.757Z,42.29
2019-03-15T09:59:40.890Z,41.99
2019-03-15T09:59:43.019Z,41.79
2019-03-15T09:59:45.156Z,41.89
2019-03-15T09:59:47.289Z,42.89
2019-03-15T09:59:49.420Z,42.99
2019-03-15T09:59:51.560Z,42.59
2019-03-15T09:59:53.689Z,42.19
2019-03-15T09:59:55.820Z,52.72
2019-03-15T09:59:57.950Z,70.15
2019-03-15T10:00:00.166Z,79.39
2019-03-15T10:00:02.538Z,82.78
2019-03-15T10:00:04.694Z,80.23
2019-03-15T10:00:06.825Z,75.46
2019-03-15T10:00:08.964Z,72.77
2019-03-15T10:00:11.092Z,69.53
2019-03-15T10:00:13.228Z,64.75
2019-03-15T10:00:15.381Z,59.88
2019-03-15T10:00:17.522Z,54.90
2019-03-15T10:00:19.653Z,50.93
2019-03-15T10:00:21.790Z,48.16
2019-03-15T10:00:23.927Z,46.37
2019-03-15T10:00:26.057Z,45.08
2019-03-15T10:00:28.197Z,44.08
2019-03-15T10:00:30.336Z,43.38
2019-03-15T10:00:32.482Z,42.79
2019-03-15T10:00:34.623Z,42.49
2019-03-15T10:00:36.763Z,42.19
2019-03-15T10:00:38.922Z,41.99
2019-03-15T10:00:41.051Z,41.89
2019-03-15T10:00:43.180Z,41.79
2019-03-15T10:00:45.326Z,41.69
2019-03-15T10:00:47.457Z,41.60
2019-03-15T10:00:49.588Z,41.60
2019-03-15T10:00:51.762Z,41.60
2019-03-15T10:00:53.952Z,41.60
2019-03-15T10:00:56.370Z,41.69
2019-03-15T10:00:59.908Z,41.89
2019-03-15T10:01:02.596Z,42.09
2019-03-15T10:01:05.286Z,42.29
2019-03-15T10:01:08.119Z,42.29
2019-03-15T10:01:10.610Z,42.49
2019-03-15T10:01:13.048Z,42.49
2019-03-15T10:01:33.279Z,42.39
2019-03-15T10:01:34.681Z,41.91
2019-03-15T10:01:35.093Z,41.52
2019-03-15T10:01:57.296Z,41.42
2019-03-15T10:01:59.439Z,41.22
2019-03-15T10:02:01.571Z,41.12
2019-03-15T10:02:03.708Z,41.12
2019-03-15T10:02:07.790Z,41.22
2019-03-15T10:02:10.190Z,41.31
2019-03-15T10:02:12.344Z,41.42
2019-03-15T10:02:14.476Z,41.52
2019-03-15T10:02:29.314Z,41.61
2019-03-15T10:02:30.454Z,41.52
2019-03-15T10:02:32.800Z,41.33
2019-03-15T10:02:34.934Z,41.33
2019-03-15T10:02:37.069Z,41.33
2019-03-15T10:02:39.236Z,41.44
2019-03-15T10:02:41.373Z,41.53
2019-03-15T10:02:43.533Z,41.63
2019-03-15T10:02:45.670Z,41.63
2019-03-15T10:02:47.800Z,41.63
2019-03-15T10:02:49.931Z,41.63
2019-03-15T10:02:52.066Z,41.63
2019-03-15T10:02:55.996Z,41.63
2019-03-15T10:02:58.462Z,41.83
2019-03-15T10:03:00.602Z,41.93
2019-03-15T10:03:02.739Z,41.93
2019-03-15T10:03:04.878Z,41.93
2019-03-15T10:03:07.008Z,44.23
2019-03-15T10:03:21.695Z,46.42
2019-03-15T10:03:22.554Z,63.92
2019-03-15T10:03:36.753Z,49.18
2019-03-15T10:03:38.990Z,42.71
2019-03-15T10:03:41.145Z,42.31
2019-03-15T10:03:43.274Z,42.01
2019-03-15T10:03:45.412Z,41.82
2019-03-15T10:03:47.543Z,41.71
2019-03-15T10:03:49.682Z,41.61
2019-03-15T10:03:51.824Z,41.61
2019-03-15T10:03:53.956Z,41.82
2019-03-15T10:03:56.105Z,41.82
2019-03-15T10:03:58.236Z,41.71
2019-03-15T10:04:00.383Z,41.61
2019-03-15T10:04:02.527Z,41.52
2019-03-15T10:04:04.671Z,41.42
2019-03-15T10:04:06.810Z,41.42
2019-03-15T10:04:08.946Z,41.42
2019-03-15T10:04:11.100Z,41.42
2019-03-15T10:04:13.247Z,41.71
2019-03-15T10:04:17.166Z,41.91
2019-03-15T10:04:19.550Z,42.11
2019-03-15T10:04:21.686Z,42.01
2019-03-15T10:04:23.827Z,41.91
2019-03-15T10:04:25.955Z,41.83
2019-03-15T10:04:28.093Z,41.74
2019-03-15T10:04:30.224Z,41.74
2019-03-15T10:04:35.779Z,41.74
2019-03-15T10:04:38.241Z,41.74
2019-03-15T10:04:40.380Z,41.74
2019-03-15T10:04:42.512Z,41.74
2019-03-15T10:04:44.649Z,41.83
2019-03-15T10:04:46.860Z,42.23
2019-03-15T10:04:49.022Z,42.33
2019-03-15T10:04:51.161Z,42.33
2019-03-15T10:04:53.311Z,42.13
2019-03-15T10:04:55.459Z,41.93
2019-03-15T10:05:10.170Z,41.83
2019-03-15T10:05:10.744Z,41.63
2019-03-15T10:05:13.786Z,42.13
2019-03-15T10:05:15.931Z,42.13
2019-03-15T10:05:18.082Z,42.03
2019-03-15T10:05:20.220Z,41.93
2019-03-15T10:05:22.357Z,41.83
2019-03-15T10:05:24.488Z,41.83
2019-03-15T10:05:26.628Z,41.83
2019-03-15T10:05:28.760Z,41.93
2019-03-15T10:05:30.889Z,42.23
2019-03-15T10:05:33.021Z,42.23
2019-03-15T10:05:35.164Z,42.13
2019-03-15T10:05:37.308Z,42.13
2019-03-15T10:05:39.467Z,42.03
2019-03-15T10:05:41.616Z,41.93
2019-03-15T10:05:43.766Z,41.74
2019-03-15T10:05:45.937Z,41.74
2019-03-15T10:05:48.075Z,41.66
2019-03-15T10:05:50.213Z,41.55
2019-03-15T10:05:52.346Z,41.55
2019-03-15T10:05:54.528Z,41.53
2019-03-15T10:05:56.672Z,41.55
2019-03-15T10:05:58.801Z,41.55
2019-03-15T10:06:13.990Z,41.66
2019-03-15T10:06:15.014Z,41.75
2019-03-15T10:06:19.555Z,41.85
2019-03-15T10:06:21.890Z,41.96
2019-03-15T10:06:24.028Z,41.96
2019-03-15T10:06:26.161Z,42.05
2019-03-15T10:06:28.302Z,42.05
2019-03-15T10:06:30.437Z,42.15
2019-03-15T10:06:32.572Z,42.15
2019-03-15T10:06:34.710Z,42.05
2019-03-15T10:06:36.845Z,41.96
2019-03-15T10:06:38.987Z,41.85
2019-03-15T10:06:41.147Z,41.85
2019-03-15T10:06:43.282Z,41.85
2019-03-15T10:06:45.423Z,41.85
2019-03-15T10:06:47.564Z,41.96
2019-03-15T10:06:49.709Z,42.25
2019-03-15T10:06:51.843Z,42.35
2019-03-15T10:06:54.055Z,42.45
2019-03-15T10:06:56.194Z,42.55
2019-03-15T10:06:58.333Z,42.65
2019-03-15T10:07:00.470Z,42.75
2019-03-15T10:07:02.612Z,43.15
2019-03-15T10:07:04.793Z,43.35
2019-03-15T10:07:06.948Z,43.25
2019-03-15T10:07:09.117Z,43.05
2019-03-15T10:07:11.280Z,42.85
2019-03-15T10:07:13.540Z,42.65
2019-03-15T10:07:15.777Z,42.55
2019-03-15T10:07:17.994Z,42.45
2019-03-15T10:07:20.172Z,42.35
2019-03-15T10:07:22.524Z,42.25
2019-03-15T10:07:37.933Z,42.25
2019-03-15T10:17:41.833Z,42.49
2019-03-15T10:18:32.830Z,42.69
2019-03-15T10:18:34.962Z,42.10
2019-03-15T10:18:37.096Z,41.99
2019-03-15T10:18:39.240Z,41.89
2019-03-15T10:18:41.370Z,41.89
2019-03-15T10:18:43.510Z,41.89
2019-03-15T10:18:45.647Z,41.99
2019-03-15T10:18:50.441Z,41.99
2019-03-15T10:18:52.807Z,42.19
2019-03-15T10:18:54.946Z,42.29
2019-03-15T10:18:57.083Z,42.29
2019-03-15T10:18:59.215Z,42.29
2019-03-15T10:19:01.345Z,42.29
2019-03-15T10:19:03.476Z,42.29
2019-03-15T10:19:05.612Z,42.29
2019-03-15T10:19:07.753Z,42.40
2019-03-15T10:19:09.887Z,42.49
2019-03-15T10:19:12.016Z,47.78
2019-03-15T10:19:14.145Z,60.42
2019-03-15T10:19:16.275Z,71.05
2019-03-15T10:19:18.404Z,76.93
2019-03-15T10:19:20.533Z,74.34
2019-03-15T10:19:22.668Z,68.33
2019-03-15T10:19:24.811Z,61.96
2019-03-15T10:19:29.652Z,56.08
2019-03-15T10:19:32.054Z,47.51
2019-03-15T10:19:34.208Z,45.62
2019-03-15T10:19:36.341Z,44.35
2019-03-15T10:19:38.491Z,43.45
2019-03-15T10:19:40.622Z,42.85
2019-03-15T10:19:42.754Z,42.45
2019-03-15T10:19:44.884Z,42.15
2019-03-15T10:19:47.025Z,41.96
2019-03-15T10:19:49.163Z,41.85
2019-03-15T10:19:51.293Z,41.66
2019-03-15T10:19:53.434Z,41.55
2019-03-15T10:19:55.561Z,41.55
2019-03-15T10:19:57.703Z,41.46
2019-03-15T10:19:59.835Z,41.85
2019-03-15T10:20:01.965Z,42.25
2019-03-15T10:20:04.107Z,42.25
2019-03-15T10:20:06.243Z,42.15
2019-03-15T10:20:08.382Z,42.05
2019-03-15T10:20:12.572Z,42.05
2019-03-15T10:20:14.989Z,41.55
2019-03-15T10:20:17.133Z,41.46
2019-03-15T10:20:19.266Z,41.36
2019-03-15T10:20:21.405Z,41.25
2019-03-15T10:20:23.544Z,41.16
2019-03-15T10:20:25.674Z,41.06
2019-03-15T10:20:27.807Z,41.06
2019-03-15T10:20:29.949Z,41.16
2019-03-15T10:20:32.089Z,41.25
2019-03-15T10:20:34.241Z,41.25
2019-03-15T10:20:36.383Z,41.36
2019-03-15T10:20:38.520Z,41.25
2019-03-15T10:20:40.660Z,41.36
2019-03-15T10:20:45.459Z,41.36
2019-03-15T10:20:47.791Z,41.25
2019-03-15T10:20:49.921Z,41.16
2019-03-15T10:20:52.052Z,40.95
2019-03-15T10:20:54.192Z,40.88
2019-03-15T10:20:56.338Z,40.88
2019-03-15T10:20:58.477Z,40.86
2019-03-15T10:21:00.608Z,40.86
2019-03-15T10:21:02.739Z,40.88
2019-03-15T10:21:04.879Z,40.98
2019-03-15T10:21:09.352Z,41.08
2019-03-15T10:21:11.726Z,41.28
2019-03-15T10:21:13.865Z,41.38
2019-03-15T10:21:15.994Z,41.58
2019-03-15T10:21:18.125Z,41.67
2019-03-15T10:21:20.254Z,41.67
2019-03-15T10:21:22.395Z,41.67
2019-03-15T10:21:24.549Z,41.67
2019-03-15T10:21:26.692Z,41.67
2019-03-15T10:21:28.832Z,41.67
2019-03-15T10:21:30.973Z,41.58
2019-03-15T10:21:33.113Z,41.67
2019-03-15T10:21:35.266Z,41.67
2019-03-15T10:21:37.489Z,41.67
2019-03-15T10:21:39.628Z,41.67
2019-03-15T10:21:41.763Z,41.77
2019-03-15T10:21:43.902Z,41.77
2019-03-15T10:21:46.041Z,41.88
2019-03-15T10:21:48.174Z,41.97
2019-03-15T10:21:50.302Z,41.97
2019-03-15T10:21:52.452Z,41.88
2019-03-15T10:21:54.584Z,41.88
2019-03-15T10:21:56.722Z,41.88
2019-03-15T10:21:58.856Z,41.88
2019-03-15T10:22:01.080Z,41.97
2019-03-15T10:22:03.209Z,41.97
2019-03-15T10:22:05.340Z,42.07
2019-03-15T10:22:07.472Z,42.07
2019-03-15T10:22:09.610Z,42.07
2019-03-15T10:22:11.738Z,42.07
2019-03-15T10:22:13.868Z,42.18
2019-03-15T10:22:16.003Z,42.37
2019-03-15T10:22:18.144Z,42.47
2019-03-15T10:22:20.280Z,42.47
2019-03-15T10:22:22.412Z,42.37
2019-03-15T10:22:24.559Z,42.27
2019-03-15T10:22:26.695Z,42.18
2019-03-15T10:22:28.837Z,42.07
2019-03-15T10:22:30.974Z,42.07
2019-03-15T10:22:33.106Z,42.07
2019-03-15T10:22:35.256Z,42.07
2019-03-15T10:22:37.386Z,42.07
2019-03-15T10:22:39.537Z,42.18
2019-03-15T10:22:41.674Z,42.18
2019-03-15T10:22:43.814Z,42.18
2019-03-15T10:22:45.973Z,42.18
2019-03-15T10:23:04.261Z,42.18
2019-03-15T10:23:05.328Z,42.18
2019-03-15T10:23:06.249Z,42.27
2019-03-15T10:23:08.655Z,42.27
2019-03-15T10:23:10.789Z,42.27
2019-03-15T10:23:12.919Z,42.18
2019-03-15T10:23:15.048Z,42.18
2019-03-15T10:23:17.180Z,42.18
2019-03-15T10:23:19.313Z,42.07
2019-03-15T10:23:21.542Z,41.97
2019-03-15T10:23:23.678Z,41.97
2019-03-15T10:23:25.814Z,41.97
2019-03-15T10:23:27.943Z,41.97
2019-03-15T10:23:30.074Z,41.97
2019-03-15T10:23:32.216Z,41.97
2019-03-15T10:23:34.357Z,41.97
2019-03-15T10:23:36.519Z,41.97
2019-03-15T10:23:38.668Z,41.97
2019-03-15T10:23:40.801Z,41.97
2019-03-15T10:23:42.937Z,42.07
2019-03-15T10:23:45.067Z,41.97
2019-03-15T10:23:47.197Z,41.97
2019-03-15T10:23:49.328Z,42.07
2019-03-15T10:23:51.468Z,42.07
2019-03-15T10:23:53.610Z,42.07
2019-03-15T10:23:55.741Z,42.07
2019-03-15T10:23:57.874Z,41.97
2019-03-15T10:24:00.019Z,41.97
2019-03-15T10:24:02.156Z,41.97
2019-03-15T10:24:04.296Z,41.97
2019-03-15T10:24:06.427Z,41.97
2019-03-15T10:24:08.568Z,42.07
2019-03-15T10:24:10.698Z,42.07
2019-03-15T10:24:15.524Z,42.07
2019-03-15T10:24:18.035Z,41.97
2019-03-15T10:24:20.165Z,41.97
2019-03-15T10:24:22.293Z,41.97
2019-03-15T10:24:24.431Z,41.97
2019-03-15T10:24:26.561Z,41.97
2019-03-15T10:24:28.696Z,41.97
2019-03-15T10:24:30.836Z,41.97
2019-03-15T10:24:32.965Z,41.97
2019-03-15T10:24:35.092Z,41.97
2019-03-15T10:24:37.250Z,41.97
2019-03-15T10:24:39.379Z,41.97
2019-03-15T10:24:41.509Z,41.97
2019-03-15T10:24:43.649Z,42.07
2019-03-15T10:24:45.784Z,41.97
2019-03-15T10:24:47.917Z,41.97
2019-03-15T10:24:50.065Z,41.97
2019-03-15T10:24:52.194Z,41.97
2019-03-15T10:24:54.432Z,41.88
2019-03-15T10:24:56.561Z,41.97
2019-03-15T10:24:58.692Z,41.97
2019-03-15T10:25:00.822Z,41.97
2019-03-15T10:25:02.951Z,41.97
2019-03-15T10:25:05.082Z,41.97
2019-03-15T10:25:07.215Z,41.97
2019-03-15T10:25:09.341Z,41.97
2019-03-15T10:25:11.469Z,41.97
2019-03-15T10:25:13.601Z,41.97
2019-03-15T10:25:15.737Z,41.97
2019-03-15T10:25:17.871Z,41.97
2019-03-15T10:25:20.011Z,41.88
2019-03-15T10:25:22.157Z,41.88
2019-03-15T10:25:24.293Z,41.88
2019-03-15T10:25:26.429Z,41.97
2019-03-15T10:25:28.561Z,41.88
2019-03-15T10:25:30.693Z,41.88
2019-03-15T10:25:45.577Z,41.88
2019-03-15T10:25:46.884Z,41.97
2019-03-15T10:25:51.305Z,42.07
2019-03-15T10:25:53.607Z,42.27
2019-03-15T10:25:55.743Z,42.27
2019-03-15T10:25:57.881Z,42.27
2019-03-15T10:26:00.010Z,42.97
2019-03-15T10:26:02.140Z,43.67
2019-03-15T10:26:04.290Z,43.77
2019-03-15T10:26:06.433Z,43.27
2019-03-15T10:26:08.573Z,42.87
2019-03-15T10:26:10.706Z,42.47
2019-03-15T10:26:15.003Z,42.27
2019-03-15T10:26:17.346Z,42.27
2019-03-15T10:26:19.486Z,42.67
2019-03-15T10:26:21.619Z,43.07
2019-03-15T10:26:23.760Z,42.97
2019-03-15T10:26:25.890Z,42.77
2019-03-15T10:26:28.028Z,42.67
2019-03-15T10:26:30.162Z,42.57
2019-03-15T10:26:32.297Z,42.57
2019-03-15T10:26:34.430Z,42.67
2019-03-15T10:26:36.570Z,42.77
2019-03-15T10:26:38.708Z,42.77
2019-03-15T10:26:40.838Z,43.97
2019-03-15T10:26:42.990Z,44.46
2019-03-15T10:26:45.145Z,43.97
2019-03-15T10:26:47.278Z,43.47
2019-03-15T10:26:49.415Z,43.67
2019-03-15T10:26:51.548Z,44.57
2019-03-15T10:26:53.684Z,44.27
2019-03-15T10:26:55.814Z,43.67
2019-03-15T10:26:57.954Z,43.47
2019-03-15T10:27:00.122Z,43.57
2019-03-15T10:27:02.265Z,44.07
2019-03-15T10:27:04.407Z,45.06
2019-03-15T10:27:06.546Z,46.26
2019-03-15T10:27:08.680Z,47.16
2019-03-15T10:27:10.814Z,47.86
2019-03-15T10:27:12.953Z,47.86
2019-03-15T10:27:15.105Z,46.96
2019-03-15T10:27:17.240Z,45.96
2019-03-15T10:27:19.378Z,45.06
2019-03-15T10:27:21.512Z,44.17
2019-03-15T10:27:23.654Z,43.55
2019-03-15T10:27:25.801Z,43.17
2019-03-15T10:27:27.931Z,42.75
2019-03-15T10:27:30.064Z,42.57
2019-03-15T10:27:32.204Z,42.35
2019-03-15T10:27:34.341Z,42.18
2019-03-15T10:27:36.470Z,42.05
2019-03-15T10:27:38.601Z,41.96
2019-03-15T10:27:40.732Z,41.96
2019-03-15T10:27:42.869Z,41.85
2019-03-15T10:27:45.036Z,41.85
2019-03-15T10:27:47.166Z,41.75
2019-03-15T10:27:49.307Z,41.75
2019-03-15T10:27:51.458Z,41.75
2019-03-15T10:27:53.589Z,41.66
2019-03-15T10:27:55.722Z,41.66
2019-03-15T10:27:57.853Z,41.66
2019-03-15T10:27:59.985Z,41.66
2019-03-15T10:28:02.124Z,41.66
2019-03-15T10:28:04.261Z,41.66
2019-03-15T10:28:06.393Z,41.96
2019-03-15T10:28:08.522Z,42.65
2019-03-15T10:28:10.724Z,43.35
2019-03-15T10:28:12.938Z,44.15
2019-03-15T10:30:02.855Z,41.85
2019-03-15T10:30:04.993Z,41.25
2019-03-15T10:30:07.139Z,41.06
2019-03-15T10:30:09.277Z,40.95
2019-03-15T10:30:11.417Z,40.95
2019-03-15T10:30:13.551Z,43.15
2019-03-15T10:30:15.695Z,45.34
2019-03-15T10:30:17.827Z,45.84
2019-03-15T10:30:19.967Z,44.94
2019-03-15T10:30:22.106Z,44.15
2019-03-15T10:30:24.238Z,43.45
2019-03-15T10:30:26.375Z,43.05
2019-03-15T10:30:28.551Z,42.65
2019-03-15T10:30:30.689Z,42.45
2019-03-15T10:30:32.818Z,42.25
2019-03-15T10:30:34.949Z,41.96
2019-03-15T10:30:37.080Z,41.85
2019-03-15T10:30:39.224Z,41.75
2019-03-15T10:30:41.354Z,41.75
2019-03-15T10:30:43.487Z,41.96
2019-03-15T10:30:45.623Z,42.15
2019-03-15T10:30:47.752Z,42.25
2019-03-15T10:30:49.895Z,42.15
2019-03-15T10:30:52.025Z,42.05
2019-03-15T10:30:54.156Z,41.96
2019-03-15T10:30:56.287Z,41.85
2019-03-15T10:30:58.432Z,41.75
2019-03-15T10:31:00.568Z,41.66
2019-03-15T10:31:02.701Z,41.66
2019-03-15T10:31:04.847Z,41.66
2019-03-15T10:31:06.976Z,41.55
2019-03-15T10:31:09.106Z,41.55
2019-03-15T10:31:11.240Z,41.55
2019-03-15T10:31:13.377Z,41.46
2019-03-15T10:31:15.507Z,41.36
2019-03-15T10:31:17.638Z,41.16
2019-03-15T10:31:19.768Z,41.16
2019-03-15T10:31:21.900Z,41.06
2019-03-15T10:31:26.558Z,41.06
2019-03-15T10:31:29.009Z,40.95
2019-03-15T10:31:31.148Z,40.95
2019-03-15T10:31:33.282Z,40.95
2019-03-15T10:31:35.420Z,40.95
2019-03-15T10:31:37.563Z,40.95
2019-03-15T10:31:39.704Z,40.95
2019-03-15T10:31:41.834Z,40.95
2019-03-15T10:31:43.974Z,41.16
2019-03-15T10:31:46.103Z,41.16
2019-03-15T10:31:48.234Z,41.25
2019-03-15T10:31:50.364Z,41.25
2019-03-15T10:31:52.576Z,41.36
2019-03-15T10:31:54.717Z,41.55
2019-03-15T10:31:56.857Z,41.66
2019-03-15T10:31:58.994Z,41.66
2019-03-15T10:32:01.126Z,41.66
